createdAt,value
2018-07-21T00:00:05.439Z,28.90
2018-07-21T00:02:37.022Z,30.20
2018-07-21T00:05:07.845Z,30.43
2018-07-21T00:07:39.483Z,30.13
2018-07-21T00:10:12.547Z,30.67
2018-07-21T00:12:44.498Z,28.60
2018-07-21T00:15:16.443Z,30.93
2018-07-21T00:17:47.334Z,30.87
2018-07-21T00:20:19.495Z,31.93
2018-07-21T00:22:51.265Z,33.57
2018-07-21T00:25:23.286Z,28.70
2018-07-21T00:27:55.094Z,31.53
2018-07-21T00:30:26.927Z,30.37
2018-07-21T00:32:58.451Z,29.53
2018-07-21T00:35:29.455Z,29.57
2018-07-21T00:38:01.348Z,30.47
2018-07-21T00:40:33.277Z,31.17
2018-07-21T00:43:04.818Z,31.17
2018-07-21T00:45:36.886Z,28.70
2018-07-21T00:48:08.769Z,31.40
2018-07-21T00:50:40.675Z,30.57
2018-07-21T00:53:12.335Z,31.60
2018-07-21T00:55:44.074Z,30.53
2018-07-21T00:58:15.746Z,30.33
2018-07-21T01:00:47.419Z,31.17
2018-07-21T01:03:18.981Z,30.93
2018-07-21T01:05:50.830Z,31.23
2018-07-21T01:08:22.386Z,30.23
2018-07-21T01:10:55.547Z,29.57
2018-07-21T01:13:26.998Z,30.77
2018-07-21T01:15:58.880Z,29.43
2018-07-21T01:18:30.619Z,29.10
2018-07-21T01:21:02.462Z,30.00
2018-07-21T01:23:34.081Z,31.40
2018-07-21T01:26:06.367Z,30.37
2018-07-21T01:28:37.954Z,31.73
2018-07-21T01:31:10.154Z,31.93
2018-07-21T01:33:41.899Z,32.57
2018-07-21T01:36:14.136Z,28.60
2018-07-21T01:38:45.643Z,30.93
2018-07-21T01:41:17.499Z,31.40
2018-07-21T01:43:49.143Z,31.17
2018-07-21T01:46:21.262Z,30.47
2018-07-21T01:48:53.089Z,29.87
2018-07-21T01:51:24.707Z,32.10
2018-07-21T01:53:56.178Z,32.67
2018-07-21T01:56:28.094Z,30.87
2018-07-21T01:59:00.015Z,33.27
2018-07-21T02:01:32.526Z,30.73
2018-07-21T02:04:04.119Z,31.40
2018-07-21T02:06:35.727Z,30.87
2018-07-21T02:09:10.758Z,31.93
2018-07-21T02:11:43.815Z,30.73
2018-07-21T02:14:15.742Z,29.30
2018-07-21T02:16:47.722Z,30.30
2018-07-21T02:19:19.720Z,32.47
2018-07-21T02:21:51.506Z,32.10
2018-07-21T02:24:23.067Z,30.40
2018-07-21T02:26:55.110Z,31.07
2018-07-21T02:29:26.714Z,31.60
2018-07-21T02:31:58.366Z,31.63
2018-07-21T02:34:29.855Z,30.13
2018-07-21T02:37:01.584Z,32.03
2018-07-21T02:39:33.339Z,31.87
2018-07-21T02:42:05.235Z,30.70
2018-07-21T02:44:36.751Z,31.17
2018-07-21T02:47:08.673Z,31.80
2018-07-21T02:49:40.404Z,30.87
2018-07-21T02:52:12.688Z,30.53
2018-07-21T02:54:43.531Z,32.93
2018-07-21T02:57:15.331Z,32.70
2018-07-21T02:59:47.042Z,32.63
2018-07-21T03:02:18.945Z,31.00
2018-07-21T03:04:50.463Z,32.87
2018-07-21T03:07:22.149Z,30.07
2018-07-21T03:09:54.024Z,30.97
2018-07-21T03:12:26.527Z,32.90
2018-07-21T03:14:58.450Z,32.40
2018-07-21T03:17:30.784Z,31.90
2018-07-21T03:20:01.733Z,34.43
2018-07-21T03:22:33.711Z,31.77
2018-07-21T03:25:05.312Z,33.70
2018-07-21T03:27:37.974Z,31.23
2018-07-21T03:30:09.691Z,30.53
2018-07-21T03:32:41.776Z,32.20
2018-07-21T03:35:13.515Z,30.50
2018-07-21T03:37:45.387Z,32.73
2018-07-21T03:40:16.834Z,31.63
2018-07-21T03:42:48.614Z,31.07
2018-07-21T03:45:20.250Z,33.70
2018-07-21T03:47:52.243Z,33.73
2018-07-21T03:50:23.825Z,31.47
2018-07-21T03:52:55.519Z,31.30
2018-07-21T03:55:27.171Z,31.97
2018-07-21T03:57:59.018Z,31.90
2018-07-21T04:00:30.508Z,32.43
2018-07-21T04:03:02.412Z,31.13
2018-07-21T04:05:34.136Z,30.47
2018-07-21T04:08:06.173Z,30.47
2018-07-21T04:10:37.674Z,30.23
2018-07-21T04:13:11.058Z,29.97
2018-07-21T04:15:42.831Z,30.07
2018-07-21T04:18:14.627Z,30.27
2018-07-21T04:20:46.200Z,31.60
2018-07-21T04:23:17.956Z,29.77
2018-07-21T04:25:49.498Z,29.63
2018-07-21T04:28:22.027Z,30.03
2018-07-21T04:30:53.693Z,30.70
2018-07-21T04:33:25.785Z,31.40
2018-07-21T04:35:57.372Z,31.17
2018-07-21T04:38:29.230Z,32.17
2018-07-21T04:41:00.973Z,32.53
2018-07-21T04:43:32.627Z,30.13
2018-07-21T04:46:04.867Z,31.90
2018-07-21T04:48:36.649Z,31.27
2018-07-21T04:51:08.499Z,32.53
2018-07-21T04:53:40.518Z,31.80
2018-07-21T04:56:12.430Z,32.10
2018-07-21T04:58:44.446Z,30.00
2018-07-21T05:01:17.986Z,32.70
2018-07-21T05:03:49.752Z,32.97
2018-07-21T05:06:21.848Z,31.55
2018-07-21T05:08:53.863Z,33.25
2018-07-21T05:11:25.495Z,31.70
2018-07-21T05:13:57.117Z,32.03
2018-07-21T05:16:28.864Z,28.98
2018-07-21T05:19:00.743Z,30.40
2018-07-21T05:21:32.775Z,28.85
2018-07-21T05:24:04.151Z,30.57
2018-07-21T05:26:36.487Z,31.25
2018-07-21T05:29:08.544Z,29.92
2018-07-21T05:31:40.254Z,30.23
2018-07-21T05:34:12.418Z,30.55
2018-07-21T05:36:44.220Z,31.40
2018-07-21T05:39:15.256Z,29.20
2018-07-21T05:41:46.894Z,29.65
2018-07-21T05:44:18.417Z,27.93
2018-07-21T05:46:50.472Z,24.98
2018-07-21T05:49:21.470Z,27.67
2018-07-21T05:51:52.918Z,26.95
2018-07-21T05:54:24.775Z,27.62
2018-07-21T05:56:56.451Z,25.88
2018-07-21T05:59:27.363Z,28.30
2018-07-21T06:01:59.164Z,28.85
2018-07-21T06:04:31.010Z,28.12
2018-07-21T06:07:01.929Z,28.57
2018-07-21T06:09:32.840Z,28.67
2018-07-21T06:12:04.668Z,26.25
2018-07-21T06:14:37.687Z,29.50
2018-07-21T06:17:09.288Z,28.57
2018-07-21T06:19:40.360Z,27.40
2018-07-21T06:22:12.207Z,28.90
2018-07-21T06:24:44.551Z,27.62
2018-07-21T06:27:16.071Z,27.95
2018-07-21T06:29:48.100Z,28.10
2018-07-21T06:32:19.906Z,26.95
2018-07-21T06:34:51.720Z,25.80
2018-07-21T06:37:22.596Z,26.45
2018-07-21T06:39:54.409Z,27.10
2018-07-21T06:42:26.083Z,25.62
2018-07-21T06:44:58.247Z,26.37
2018-07-21T06:47:29.810Z,25.12
2018-07-21T06:50:01.741Z,28.15
2018-07-21T06:52:33.109Z,27.80
2018-07-21T06:55:05.124Z,28.17
2018-07-21T06:57:36.564Z,26.48
2018-07-21T07:00:08.531Z,28.25
2018-07-21T07:02:40.775Z,29.32
2018-07-21T07:05:12.653Z,27.40
2018-07-21T07:07:44.439Z,30.57
2018-07-21T07:10:16.626Z,30.40
2018-07-21T07:12:48.307Z,31.65
2018-07-21T07:15:19.630Z,32.67
2018-07-21T07:17:51.417Z,32.93
2018-07-21T07:20:22.634Z,31.37
2018-07-21T07:22:54.252Z,31.50
2018-07-21T07:25:26.186Z,31.93
2018-07-21T07:27:57.052Z,32.17
2018-07-21T07:30:28.147Z,31.12
2018-07-21T07:32:59.688Z,32.28
2018-07-21T07:35:31.690Z,33.02
2018-07-21T07:38:02.422Z,30.88
2018-07-21T07:40:35.519Z,30.43
2018-07-21T07:43:07.679Z,29.65
2018-07-21T07:45:39.433Z,29.87
2018-07-21T07:48:11.292Z,30.40
2018-07-21T07:50:42.449Z,29.85
2018-07-21T07:53:14.118Z,29.15
2018-07-21T07:55:46.030Z,28.15
2018-07-21T07:58:17.516Z,28.73
2018-07-21T08:00:49.342Z,28.62
2018-07-21T08:03:20.951Z,27.25
2018-07-21T08:05:52.842Z,27.20
2018-07-21T08:08:24.727Z,26.12
2018-07-21T08:10:55.839Z,27.57
2018-07-21T08:13:27.610Z,26.10
2018-07-21T08:15:59.838Z,28.10
2018-07-21T08:18:30.575Z,28.10
2018-07-21T08:21:01.422Z,26.82
2018-07-21T08:23:33.120Z,26.97
2018-07-21T08:26:04.958Z,26.83
2018-07-21T08:28:36.754Z,26.62
2018-07-21T08:31:07.873Z,27.07
2018-07-21T08:33:39.536Z,27.77
2018-07-21T08:36:11.626Z,27.25
2018-07-21T08:38:43.416Z,28.30
2018-07-21T08:41:14.425Z,28.45
2018-07-21T08:43:46.180Z,26.37
2018-07-21T08:46:18.438Z,26.95
2018-07-21T08:48:50.230Z,27.27
2018-07-21T08:51:21.896Z,26.75
2018-07-21T08:53:53.491Z,27.60
2018-07-21T08:56:25.370Z,27.27
2018-07-21T08:58:57.086Z,24.72
2018-07-21T09:01:28.831Z,25.43
2018-07-21T09:04:00.390Z,25.92
2018-07-21T09:06:32.215Z,26.62
2018-07-21T09:09:04.519Z,25.23
2018-07-21T09:11:36.682Z,26.70
2018-07-21T09:14:08.364Z,25.15
2018-07-21T09:16:42.026Z,28.50
2018-07-21T09:19:12.626Z,26.48
2018-07-21T09:21:44.769Z,26.17
2018-07-21T09:24:16.477Z,27.55
2018-07-21T09:26:48.180Z,26.55
2018-07-21T09:29:19.834Z,25.77
2018-07-21T09:31:51.866Z,27.52
2018-07-21T09:34:23.571Z,25.37
2018-07-21T09:36:55.374Z,26.60
2018-07-21T09:39:26.982Z,24.13
2018-07-21T09:41:58.831Z,22.45
2018-07-21T09:44:29.570Z,23.43
2018-07-21T09:47:01.411Z,22.13
2018-07-21T09:49:33.221Z,24.47
2018-07-21T09:52:05.371Z,23.42
2018-07-21T09:54:36.781Z,22.98
2018-07-21T09:57:08.650Z,23.00
2018-07-21T09:59:40.373Z,24.00
2018-07-21T10:02:12.546Z,23.38
2018-07-21T10:04:44.213Z,23.10
2018-07-21T10:07:15.980Z,22.37
2018-07-21T10:09:46.506Z,22.87
2018-07-21T10:12:18.343Z,24.27
2018-07-21T10:14:49.979Z,24.13
2018-07-21T10:17:23.002Z,22.67
2018-07-21T10:19:54.491Z,21.45
2018-07-21T10:22:26.578Z,22.83
2018-07-21T10:25:02.796Z,19.90
2018-07-21T10:27:39.114Z,19.87
2018-07-21T10:30:10.777Z,20.30
2018-07-21T10:32:42.823Z,21.23
2018-07-21T10:35:14.550Z,19.77
2018-07-21T10:37:46.543Z,20.27
2018-07-21T10:40:18.305Z,19.50
2018-07-21T10:42:49.265Z,19.17
2018-07-21T10:45:21.154Z,18.10
2018-07-21T10:47:53.134Z,18.63
2018-07-21T10:50:24.781Z,17.00
2018-07-21T10:52:56.336Z,16.70
2018-07-21T10:55:27.929Z,19.13
2018-07-21T10:57:59.820Z,18.03
2018-07-21T11:00:31.271Z,18.23
2018-07-21T11:03:03.059Z,17.33
2018-07-21T11:05:34.702Z,19.20
2018-07-21T11:08:07.425Z,20.17
2018-07-21T11:10:39.126Z,21.20
2018-07-21T11:13:11.143Z,20.83
2018-07-21T11:15:43.126Z,20.97
2018-07-21T11:18:15.939Z,23.83
2018-07-21T11:20:47.469Z,24.47
2018-07-21T11:23:19.704Z,23.00
2018-07-21T11:25:51.633Z,23.47
2018-07-21T11:28:24.058Z,25.20
2018-07-21T11:30:55.804Z,26.10
2018-07-21T11:33:27.877Z,23.53
2018-07-21T11:35:59.993Z,24.63
2018-07-21T11:38:31.502Z,25.77
2018-07-21T11:41:03.172Z,25.20
2018-07-21T11:43:34.909Z,24.73
2018-07-21T11:46:06.633Z,24.23
2018-07-21T11:48:38.724Z,22.73
2018-07-21T11:51:10.258Z,22.77
2018-07-21T11:53:42.098Z,22.60
2018-07-21T11:56:14.127Z,21.33
2018-07-21T11:58:45.944Z,22.30
2018-07-21T12:01:17.798Z,22.30
2018-07-21T12:03:49.874Z,21.00
2018-07-21T12:06:21.579Z,22.20
2018-07-21T12:08:53.420Z,21.13
2018-07-21T12:11:25.728Z,21.70
2018-07-21T12:13:57.567Z,22.20
2018-07-21T12:16:28.134Z,21.07
2018-07-21T12:19:02.213Z,21.40
2018-07-21T12:21:33.219Z,22.23
2018-07-21T12:24:04.983Z,21.17
2018-07-21T12:26:36.562Z,21.60
2018-07-21T12:29:07.470Z,21.57
2018-07-21T12:31:39.176Z,20.90
2018-07-21T12:34:10.891Z,22.03
2018-07-21T12:36:42.684Z,21.33
2018-07-21T12:39:14.866Z,22.10
2018-07-21T12:41:46.547Z,22.80
2018-07-21T12:44:18.283Z,23.20
2018-07-21T12:46:50.068Z,21.97
2018-07-21T12:49:22.546Z,22.63
2018-07-21T12:51:54.104Z,22.47
2018-07-21T12:54:26.285Z,20.87
2018-07-21T12:56:57.884Z,22.23
2018-07-21T12:59:29.751Z,21.33
2018-07-21T13:02:00.506Z,21.30
2018-07-21T13:04:32.356Z,21.23
2018-07-21T13:07:04.335Z,20.73
2018-07-21T13:09:36.376Z,22.23
2018-07-21T13:12:07.873Z,22.17
2018-07-21T13:14:39.738Z,22.43
2018-07-21T13:17:11.427Z,22.27
2018-07-21T13:19:44.569Z,20.83
2018-07-21T13:22:17.207Z,21.70
2018-07-21T13:24:49.336Z,21.17
2018-07-21T13:27:21.081Z,21.10
2018-07-21T13:29:54.353Z,22.50
2018-07-21T13:32:25.258Z,23.50
2018-07-21T13:34:57.406Z,21.97
2018-07-21T13:37:29.593Z,21.73
2018-07-21T13:40:01.646Z,22.07
2018-07-21T13:42:33.482Z,22.87
2018-07-21T13:45:05.659Z,22.93
2018-07-21T13:47:37.130Z,21.90
2018-07-21T13:50:08.978Z,22.37
2018-07-21T13:52:40.476Z,21.70
2018-07-21T13:55:12.506Z,21.30
2018-07-21T13:57:43.901Z,22.23
2018-07-21T14:00:15.712Z,23.00
2018-07-21T14:02:47.267Z,20.33
2018-07-21T14:05:19.291Z,20.90
2018-07-21T14:07:50.738Z,20.60
2018-07-21T14:10:21.770Z,21.50
2018-07-21T14:12:52.650Z,22.00
2018-07-21T14:15:24.793Z,21.53
2018-07-21T14:17:56.594Z,24.20
2018-07-21T14:20:29.373Z,22.87
2018-07-21T14:23:01.180Z,22.10
2018-07-21T14:25:33.165Z,22.80
2018-07-21T14:28:04.017Z,25.40
2018-07-21T14:30:34.884Z,22.77
2018-07-21T14:33:06.544Z,24.73
2018-07-21T14:35:38.351Z,23.53
2018-07-21T14:38:10.034Z,22.60
2018-07-21T14:40:41.736Z,21.53
2018-07-21T14:43:13.352Z,22.77
2018-07-21T14:45:45.447Z,23.60
2018-07-21T14:48:17.136Z,21.43
2018-07-21T14:50:48.722Z,20.30
2018-07-21T14:53:20.270Z,20.30
2018-07-21T14:55:52.187Z,22.20
2018-07-21T14:58:24.109Z,24.43
2018-07-21T15:00:55.159Z,22.30
2018-07-21T15:03:26.766Z,21.60
2018-07-21T15:05:58.650Z,20.50
2018-07-21T15:08:30.198Z,22.17
2018-07-21T15:11:02.015Z,21.33
2018-07-21T15:13:33.791Z,20.33
2018-07-21T15:16:05.737Z,21.47
2018-07-21T15:18:37.166Z,19.73
2018-07-21T15:21:10.636Z,20.63
2018-07-21T15:23:42.724Z,19.37
2018-07-21T15:26:14.535Z,20.90
2018-07-21T15:28:46.242Z,21.03
2018-07-21T15:31:18.384Z,20.40
2018-07-21T15:33:50.090Z,18.40
2018-07-21T15:36:22.064Z,19.27
2018-07-21T15:38:53.843Z,19.13
2018-07-21T15:41:25.509Z,21.63
2018-07-21T15:43:56.962Z,19.83
2018-07-21T15:46:28.747Z,18.87
2018-07-21T15:49:00.239Z,18.60
2018-07-21T15:51:32.058Z,20.70
2018-07-21T15:54:03.746Z,20.30
2018-07-21T15:56:35.700Z,21.60
2018-07-21T15:59:07.138Z,22.80
2018-07-21T16:01:37.799Z,22.60
2018-07-21T16:04:09.489Z,22.60
2018-07-21T16:06:41.614Z,19.83
2018-07-21T16:09:13.438Z,20.57
2018-07-21T16:11:45.490Z,19.17
2018-07-21T16:14:17.051Z,20.57
2018-07-21T16:16:48.715Z,19.70
2018-07-21T16:19:20.393Z,21.10
2018-07-21T16:21:53.646Z,20.97
2018-07-21T16:24:25.282Z,18.63
2018-07-21T16:26:57.062Z,19.10
2018-07-21T16:29:28.667Z,19.50
2018-07-21T16:31:59.474Z,20.50
2018-07-21T16:34:31.182Z,21.33
2018-07-21T16:37:03.287Z,21.23
2018-07-21T16:39:35.142Z,22.77
2018-07-21T16:42:07.058Z,23.00
2018-07-21T16:44:37.978Z,22.27
2018-07-21T16:47:10.084Z,22.80
2018-07-21T16:49:42.023Z,21.57
2018-07-21T16:52:13.003Z,22.27
2018-07-21T16:54:45.000Z,24.50
2018-07-21T16:57:16.803Z,24.80
2018-07-21T16:59:47.487Z,24.00
2018-07-21T17:02:19.398Z,24.47
2018-07-21T17:04:50.758Z,25.33
2018-07-21T17:07:22.483Z,24.83
2018-07-21T17:09:54.047Z,25.07
2018-07-21T17:12:25.979Z,24.13
2018-07-21T17:14:57.430Z,26.63
2018-07-21T17:17:29.609Z,25.73
2018-07-21T17:20:01.143Z,26.27
2018-07-21T17:22:33.933Z,26.73
2018-07-21T17:25:05.565Z,26.87
2018-07-21T17:27:37.662Z,25.00
2018-07-21T17:30:09.456Z,25.73
2018-07-21T17:32:41.957Z,24.77
2018-07-21T17:35:13.632Z,23.80
2018-07-21T17:37:45.362Z,24.83
2018-07-21T17:40:15.887Z,23.63
2018-07-21T17:42:47.963Z,23.53
2018-07-21T17:45:18.882Z,25.97
2018-07-21T17:47:49.657Z,24.50
2018-07-21T17:50:21.468Z,25.90
2018-07-21T17:52:53.250Z,26.80
2018-07-21T17:55:24.710Z,24.50
2018-07-21T17:57:56.409Z,27.77
2018-07-21T18:00:28.070Z,26.70
2018-07-21T18:02:59.850Z,27.60
2018-07-21T18:05:31.471Z,26.00
2018-07-21T18:08:03.879Z,28.90
2018-07-21T18:10:35.406Z,27.97
2018-07-21T18:13:07.310Z,28.23
2018-07-21T18:15:38.971Z,26.10
2018-07-21T18:18:10.679Z,28.60
2018-07-21T18:20:42.334Z,28.73
2018-07-21T18:23:15.623Z,29.77
2018-07-21T18:25:47.838Z,28.50
2018-07-21T18:28:19.474Z,28.43
2018-07-21T18:30:51.097Z,27.67
2018-07-21T18:33:22.993Z,28.80
2018-07-21T18:35:54.761Z,28.47
2018-07-21T18:38:25.683Z,30.03
2018-07-21T18:40:57.331Z,30.13
2018-07-21T18:43:29.352Z,28.60
2018-07-21T18:46:00.815Z,29.77
2018-07-21T18:48:31.697Z,31.63
2018-07-21T18:51:03.235Z,30.37
2018-07-21T18:53:35.239Z,30.20
2018-07-21T18:56:06.970Z,29.03
2018-07-21T18:58:38.820Z,31.60
2018-07-21T19:01:10.719Z,30.73
2018-07-21T19:03:42.291Z,32.87
2018-07-21T19:06:13.871Z,31.93
2018-07-21T19:08:50.622Z,33.17
2018-07-21T19:11:22.360Z,33.90
2018-07-21T19:13:54.317Z,32.43
2018-07-21T19:16:30.736Z,32.10
2018-07-21T19:19:02.516Z,32.83
2018-07-21T19:21:34.205Z,32.20
2018-07-21T19:24:07.242Z,34.40
2018-07-21T19:26:42.817Z,32.30
2018-07-21T19:29:13.957Z,34.40
2018-07-21T19:31:50.601Z,34.60
2018-07-21T19:34:22.547Z,35.73
2018-07-21T19:36:53.297Z,34.10
2018-07-21T19:39:25.274Z,35.17
2018-07-21T19:42:01.827Z,34.30
2018-07-21T19:44:33.809Z,34.17
2018-07-21T19:47:05.610Z,36.60
2018-07-21T19:49:38.455Z,33.83
2018-07-21T19:52:10.109Z,35.20
2018-07-21T19:54:41.113Z,36.70
2018-07-21T19:57:12.711Z,35.90
2018-07-21T19:59:45.533Z,35.33
2018-07-21T20:02:17.030Z,35.50
2018-07-21T20:04:48.813Z,34.90
2018-07-21T20:07:20.242Z,35.17
2018-07-21T20:09:52.306Z,37.57
2018-07-21T20:12:23.910Z,36.00
2018-07-21T20:14:56.238Z,37.57
2018-07-21T20:17:26.907Z,36.73
2018-07-21T20:19:58.890Z,37.63
2018-07-21T20:22:30.511Z,36.17
2018-07-21T20:25:03.320Z,36.10
2018-07-21T20:27:35.488Z,37.23
2018-07-21T20:30:07.783Z,37.17
2018-07-21T20:32:39.382Z,38.53
2018-07-21T20:35:11.216Z,35.87
2018-07-21T20:37:42.990Z,37.10
2018-07-21T20:40:14.574Z,37.77
2018-07-21T20:42:46.262Z,38.67
2018-07-21T20:45:17.975Z,39.80
2018-07-21T20:47:49.715Z,37.37
2018-07-21T20:50:20.694Z,37.73
2018-07-21T20:52:52.465Z,37.07
2018-07-21T20:55:24.287Z,36.97
2018-07-21T20:57:56.007Z,38.83
2018-07-21T21:00:28.546Z,39.30
2018-07-21T21:03:00.205Z,37.90
2018-07-21T21:05:32.594Z,39.60
2018-07-21T21:08:04.099Z,36.97
2018-07-21T21:10:36.167Z,38.80
2018-07-21T21:13:07.771Z,37.30
2018-07-21T21:15:39.710Z,40.07
2018-07-21T21:18:11.567Z,38.40
2018-07-21T21:20:42.581Z,37.30
2018-07-21T21:23:14.310Z,34.93
2018-07-21T21:25:47.546Z,39.10
2018-07-21T21:28:19.140Z,33.73
2018-07-21T21:30:51.083Z,36.67
2018-07-21T21:33:21.798Z,35.77
2018-07-21T21:35:53.962Z,35.47
2018-07-21T21:38:24.650Z,36.77
2018-07-21T21:40:56.425Z,35.47
2018-07-21T21:43:28.106Z,36.03
2018-07-21T21:45:59.022Z,35.00
2018-07-21T21:48:30.830Z,37.50
2018-07-21T21:51:02.778Z,34.73
2018-07-21T21:53:34.643Z,33.60
2018-07-21T21:56:06.402Z,35.67
2018-07-21T21:58:38.397Z,33.83
2018-07-21T22:01:12.259Z,34.57
2018-07-21T22:03:44.106Z,34.40
2018-07-21T22:06:16.402Z,35.40
2018-07-21T22:08:47.558Z,34.77
2018-07-21T22:11:19.335Z,33.57
2018-07-21T22:13:50.171Z,33.57
2018-07-21T22:16:21.344Z,34.70
2018-07-21T22:18:53.369Z,31.80
2018-07-21T22:21:26.094Z,33.90
2018-07-21T22:23:57.977Z,32.07
2018-07-21T22:26:31.189Z,34.67
2018-07-21T22:29:02.771Z,31.57
2018-07-21T22:31:34.930Z,33.80
2018-07-21T22:34:06.510Z,33.60
2018-07-21T22:36:38.627Z,34.37
2018-07-21T22:39:12.698Z,32.87
2018-07-21T22:41:44.538Z,35.27
2018-07-21T22:44:15.300Z,33.23
2018-07-21T22:46:47.091Z,32.30
2018-07-21T22:49:18.783Z,34.30
2018-07-21T22:51:50.395Z,32.43
2018-07-21T22:54:21.873Z,36.37
2018-07-21T22:56:53.835Z,33.30
2018-07-21T22:59:24.484Z,34.00
2018-07-21T23:01:55.546Z,33.93
2018-07-21T23:04:27.319Z,36.30
2018-07-21T23:06:59.303Z,35.40
2018-07-21T23:09:30.958Z,34.70
2018-07-21T23:12:03.054Z,33.27
2018-07-21T23:14:34.786Z,33.87
2018-07-21T23:17:06.676Z,32.50
2018-07-21T23:19:38.266Z,36.00
2018-07-21T23:22:10.302Z,34.33
2018-07-21T23:24:41.911Z,34.57
2018-07-21T23:27:14.613Z,33.90
2018-07-21T23:29:46.236Z,35.80
2018-07-21T23:32:18.222Z,33.90
2018-07-21T23:34:50.000Z,33.00
2018-07-21T23:37:21.959Z,34.67
2018-07-21T23:39:53.499Z,35.50
2018-07-21T23:42:25.444Z,32.50
2018-07-21T23:44:57.053Z,33.83
2018-07-21T23:47:27.894Z,34.10
2018-07-21T23:49:59.526Z,33.97
2018-07-21T23:52:31.499Z,36.30
2018-07-21T23:55:02.374Z,34.57
2018-07-21T23:57:34.246Z,35.17
